.
WxDataArchive / Data Records for 2012-08-13
2012-08-12 August 2012 2012-08-14

Data Records for Monday, 13 August 2012

Time	Temp	Chill	HIndex	Humid	Dewpt	 Wind 	HiWind	WindDir	Rain 	Barom 
-----	----	-----	------	-----	-----	------	------	-------	-----	----- 
00:00	64.2	64.2	64.2	80	57.9	0	0	---	0.00	29.985 
00:05	64.0	64.0	64.0	80	57.7	0	0	---	0.00	29.985 
00:10	64.0	64.0	64.0	80	57.7	0	0	---	0.00	29.985 
00:15	64.0	64.0	64.0	80	57.7	0	0	---	0.00	29.981 
00:20	64.0	64.0	64.0	81	58.0	0	0	---	0.00	29.981 
00:25	64.0	64.0	64.0	81	58.0	0	0	---	0.00	29.981 
00:30	64.0	64.0	64.0	81	58.0	0	0	---	0.00	29.981 
00:35	64.0	64.0	64.0	81	58.0	0	0	---	0.00	29.981 
00:40	64.0	64.0	64.0	81	58.0	0	0	---	0.00	29.981 
00:45	64.0	64.0	64.0	81	58.0	0	0	---	0.00	29.983 
00:50	64.0	64.0	64.0	81	58.0	0	0	---	0.00	29.983 
00:55	64.0	64.0	64.0	81	58.0	0	0	---	0.00	29.983 
01:00	64.2	64.2	64.2	81	58.2	0	0	---	0.00	29.987 
01:05	64.2	64.2	64.2	81	58.2	0	0	---	0.00	29.987 
01:10	64.2	64.2	64.2	81	58.2	0	0	---	0.00	29.987 
01:15	64.2	64.2	64.2	81	58.2	0	0	---	0.00	29.985 
01:20	64.3	64.3	64.3	81	58.3	0	0	---	0.00	29.985 
01:25	64.3	64.3	64.3	82	58.7	0	0	---	0.00	29.985 
01:30	64.3	64.3	64.3	82	58.7	0	0	---	0.00	29.986 
01:35	64.3	64.3	64.3	82	58.7	0	0	---	0.00	29.986 
01:40	64.3	64.3	64.3	82	58.7	0	0	---	0.00	29.986 
01:45	64.2	64.2	64.2	82	58.6	0	0	---	0.00	29.979 
01:50	64.3	64.3	64.3	83	59.0	0	0	---	0.00	29.979 
01:55	64.2	64.2	64.2	83	58.9	0	0	---	0.00	29.979 
02:00	64.2	64.2	64.2	83	58.9	0	0	---	0.00	29.976 
02:05	64.2	64.2	64.2	83	58.9	0	0	---	0.00	29.976 
02:10	64.2	64.2	64.2	83	58.9	0	0	---	0.00	29.976 
02:15	64.0	64.0	64.0	83	58.7	0	0	---	0.00	29.974 
02:20	64.0	64.0	64.0	83	58.7	0	0	---	0.00	29.974 
02:25	64.0	64.0	64.0	83	58.7	0	0	---	0.00	29.974 
02:30	64.0	64.0	64.0	83	58.7	0	0	---	0.00	29.973 
02:35	64.0	64.0	64.0	83	58.7	0	0	---	0.00	29.973 
02:40	64.0	64.0	64.0	83	58.7	0	0	---	0.00	29.973 
02:45	64.0	64.0	64.0	83	58.7	0	0	---	0.00	29.972 
02:50	63.9	63.9	63.9	84	59.0	0	0	---	0.00	29.972 
02:55	63.9	63.9	63.9	84	59.0	0	0	---	0.00	29.972 
03:00	63.9	63.9	63.9	84	59.0	0	0	---	0.00	29.971 
03:05	63.9	63.9	63.9	84	59.0	0	0	---	0.00	29.971 
03:10	63.9	63.9	63.9	84	59.0	0	0	---	0.00	29.971 
03:15	63.9	63.9	63.9	84	59.0	0	0	---	0.00	29.973 
03:20	63.9	63.9	63.9	84	59.0	0	0	---	0.00	29.973 
03:25	63.9	63.9	63.9	84	59.0	0	0	---	0.00	29.973 
03:30	63.7	63.7	63.7	84	58.8	0	0	---	0.00	29.974 
03:35	63.7	63.7	63.7	84	58.8	0	0	---	0.00	29.974 
03:40	63.7	63.7	63.7	83	58.4	0	0	---	0.00	29.974 
03:45	63.9	63.9	63.9	84	59.0	0	0	---	0.00	29.973 
03:50	63.9	63.9	63.9	84	59.0	0	0	---	0.00	29.973 
03:55	63.9	63.9	63.9	84	59.0	0	0	---	0.00	29.973 
04:00	63.9	63.9	63.9	84	59.0	0	0	---	0.00	29.976 
04:05	63.9	63.9	63.9	84	59.0	0	0	---	0.00	29.976 
04:10	63.9	63.9	63.9	84	59.0	0	0	---	0.00	29.976 
04:15	63.9	63.9	63.9	84	59.0	0	0	---	0.00	29.974 
04:20	63.9	63.9	63.9	84	59.0	0	0	---	0.00	29.974 
04:25	63.9	63.9	63.9	84	59.0	0	0	---	0.00	29.974 
04:30	63.9	63.9	63.9	84	59.0	0	0	---	0.00	29.974 
04:35	63.9	63.9	63.9	84	59.0	0	0	---	0.00	29.974 
04:40	63.7	63.7	63.7	84	58.8	0	0	---	0.00	29.974 
04:45	63.7	63.7	63.7	84	58.8	0	0	---	0.00	29.972 
04:50	63.7	63.7	63.7	85	59.1	0	0	---	0.00	29.972 
04:55	63.7	63.7	63.7	85	59.1	0	0	---	0.00	29.972 
05:00	63.7	63.7	63.7	85	59.1	0	0	---	0.00	29.972 
05:05	63.7	63.7	63.7	85	59.1	0	0	---	0.00	29.972 
05:10	63.7	63.7	63.7	85	59.1	0	0	---	0.00	29.972 
05:15	63.7	63.7	63.7	85	59.1	0	0	---	0.00	29.974 
05:20	63.7	63.7	63.7	85	59.1	0	0	---	0.00	29.974 
05:25	63.7	63.7	63.7	85	59.1	0	0	---	0.00	29.974 
05:30	63.7	63.7	63.7	85	59.1	0	0	---	0.00	29.974 
05:35	63.5	63.5	63.5	85	58.9	0	0	---	0.00	29.974 
05:40	63.5	63.5	63.5	85	58.9	0	0	---	0.00	29.974 
05:45	63.5	63.5	63.5	85	58.9	0	0	---	0.00	29.974 
05:50	63.5	63.5	63.5	85	58.9	0	0	---	0.00	29.974 
05:55	63.5	63.5	63.5	85	58.9	0	0	---	0.00	29.974 
06:00	63.5	63.5	63.5	86	59.2	0	0	---	0.00	29.972 
06:05	63.5	63.5	63.5	86	59.2	0	0	---	0.00	29.972 
06:10	63.5	63.5	63.5	86	59.2	0	0	---	0.00	29.972 
06:15	63.7	63.7	63.7	86	59.4	0	0	---	0.00	29.973 
06:20	63.7	63.7	63.7	85	59.1	0	0	---	0.00	29.973 
06:25	63.7	63.7	63.7	85	59.1	0	0	---	0.00	29.973 
06:30	63.7	63.7	63.7	85	59.1	0	0	---	0.00	29.977 
06:35	63.7	63.7	63.7	85	59.1	0	0	---	0.00	29.977 
06:40	63.7	63.7	63.7	85	59.1	0	0	---	0.00	29.977 
06:45	63.7	63.7	63.7	85	59.1	0	0	---	0.00	29.978 
06:50	63.7	63.7	63.7	85	59.1	0	0	---	0.00	29.978 
06:55	63.7	63.7	63.7	85	59.1	0	0	---	0.00	29.978 
07:00	63.7	63.7	63.7	85	59.1	0	0	---	0.00	29.975 
07:05	63.7	63.7	63.7	86	59.4	0	0	---	0.00	29.975 
07:10	63.5	63.5	63.5	86	59.2	0	0	---	0.00	29.975 
07:15	63.5	63.5	63.5	86	59.2	0	0	---	0.00	29.974 
07:20	63.7	63.7	63.7	86	59.4	0	0	---	0.00	29.974 
07:25	63.7	63.7	63.7	86	59.4	0	0	---	0.00	29.974 
07:30	63.9	63.9	63.9	86	59.6	0	0	---	0.00	29.974 
07:35	64.0	64.0	64.0	85	59.4	0	0	---	0.00	29.974 
07:40	64.2	64.2	64.2	85	59.6	0	0	---	0.00	29.974 
07:45	64.3	64.3	64.3	85	59.7	0	0	---	0.00	29.974 
07:50	64.3	64.3	64.3	84	59.4	0	0	---	0.00	29.974 
07:55	64.5	64.5	64.5	84	59.6	0	0	---	0.00	29.974 
08:00	64.7	64.7	64.7	84	59.7	0	1	315	0.00	29.973 
08:05	64.8	64.8	64.8	83	59.5	0	0	---	0.00	29.973 
08:10	65.0	65.0	65.0	83	59.7	0	0	---	0.00	29.973 
08:15	65.2	65.2	65.2	82	59.6	0	0	---	0.00	29.975 
08:20	65.2	65.2	65.2	82	59.6	0	0	---	0.00	29.975 
08:25	65.3	65.3	65.3	82	59.7	0	0	---	0.00	29.975 
08:30	65.3	65.3	65.3	82	59.7	0	0	---	0.00	29.977 
08:35	65.5	65.5	65.5	82	59.9	0	2	315	0.00	29.977 
08:40	65.5	65.5	65.5	81	59.5	0	1	315	0.00	29.977 
08:45	65.6	65.6	65.6	81	59.6	0	0	---	0.00	29.984 
08:50	65.6	65.6	65.6	81	59.6	0	0	---	0.00	29.984 
08:55	65.8	65.8	65.8	81	59.8	0	0	---	0.00	29.984 
09:00	66.0	66.0	66.0	81	60.0	0	0	---	0.00	29.987 
09:05	66.0	66.0	66.0	81	60.0	0	0	---	0.00	29.987 
09:10	66.1	66.1	66.1	81	60.1	0	0	---	0.00	29.987 
09:15	66.1	66.1	66.1	81	60.1	0	0	---	0.00	29.989 
09:20	66.3	66.3	66.3	81	60.3	0	0	---	0.00	29.989 
09:25	66.4	66.4	66.4	80	60.0	0	0	---	0.00	29.989 
09:30	66.8	66.8	66.8	79	60.1	0	0	---	0.00	29.988 
09:35	67.1	67.1	67.1	77	59.6	0	1	315	0.00	29.988 
09:40	67.4	67.4	67.4	75	59.2	0	2	315	0.00	29.988 
09:45	67.6	67.6	67.6	73	58.6	1	3	315	0.00	29.980 
09:50	67.8	67.8	67.8	72	58.4	0	1	315	0.00	29.980 
09:55	67.8	67.8	67.8	71	58.0	1	3	315	0.00	29.980 
10:00	67.8	67.8	67.8	72	58.4	0	3	270	0.00	29.981 
10:05	67.6	67.6	67.6	73	58.6	0	2	270	0.00	29.981 
10:10	67.4	67.4	67.4	73	58.4	0	1	270	0.00	29.981 
10:15	67.3	67.3	67.3	74	58.7	0	1	270	0.00	29.981 
10:20	67.1	67.1	67.1	75	58.9	0	1	270	0.00	29.981 
10:25	67.1	67.1	67.1	75	58.9	0	2	270	0.00	29.981 
10:30	67.1	67.1	67.1	75	58.9	0	1	270	0.00	29.978 
10:35	67.1	67.1	67.1	74	58.5	0	1	270	0.00	29.978 
10:40	67.1	67.1	67.1	75	58.9	0	1	270	0.00	29.978 
10:45	67.3	67.3	67.3	75	59.1	0	1	270	0.00	29.975 
10:50	67.3	67.3	67.3	75	59.1	0	1	270	0.00	29.975 
10:55	67.4	67.4	67.4	74	58.8	0	1	270	0.00	29.975 
11:00	67.6	67.6	67.6	73	58.6	0	2	270	0.00	29.976 
11:05	68.1	68.1	68.1	76	60.2	0	1	270	0.00	29.976 
11:10	68.4	68.4	68.4	74	59.8	0	0	---	0.00	29.976 
11:15	68.6	68.6	68.6	73	59.6	0	1	270	0.00	29.970 
11:20	68.4	68.4	68.4	72	59.0	0	2	270	0.00	29.970 
11:25	68.3	68.3	68.3	72	58.9	0	3	270	0.00	29.970 
11:30	68.1	68.1	68.1	72	58.7	0	1	270	0.00	29.970 
11:35	68.3	68.3	68.3	73	59.3	0	3	270	0.00	29.970 
11:40	68.6	68.6	68.6	74	60.0	1	3	270	0.00	29.970 
11:45	68.6	68.6	68.6	73	59.6	1	5	112	0.00	29.962 
11:50	68.4	68.4	68.4	73	59.4	0	1	112	0.00	29.962 
11:55	68.4	68.4	68.4	73	59.4	0	3	112	0.00	29.962 
12:00	68.4	68.4	68.4	73	59.4	0	3	135	0.00	29.962 
12:05	68.6	68.6	68.6	74	60.0	0	2	135	0.00	29.962 
12:10	68.6	68.6	68.6	72	59.2	2	6	112	0.00	29.962 
12:15	68.6	68.6	68.6	73	59.6	0	2	112	0.00	29.962 
12:20	68.6	68.6	68.6	73	59.6	0	2	112	0.00	29.962 
12:25	68.6	68.6	68.6	73	59.6	0	1	112	0.00	29.962 
12:30	68.8	68.8	68.8	73	59.8	0	4	112	0.00	29.961 
12:35	68.9	68.9	68.9	72	59.5	2	6	112	0.00	29.961 
12:40	69.1	69.1	69.1	72	59.7	0	3	112	0.00	29.961 
12:45	69.4	69.4	69.4	71	59.6	0	1	112	0.00	29.960 
12:50	69.6	69.6	69.6	72	60.2	0	2	112	0.00	29.960 
12:55	69.6	69.6	69.6	72	60.2	1	4	112	0.00	29.960 
13:00	69.6	69.6	69.6	72	60.2	1	3	112	0.00	29.957 
13:05	69.6	69.6	69.6	71	59.8	2	4	112	0.00	29.957 
13:10	69.6	69.6	69.6	71	59.8	1	4	112	0.00	29.957 
13:15	69.6	69.6	69.6	72	60.2	0	3	112	0.00	29.953 
13:20	69.6	69.6	69.6	72	60.2	1	4	112	0.00	29.953 
13:25	69.6	69.6	69.6	71	59.8	2	5	112	0.00	29.953 
13:30	69.8	69.8	69.8	72	60.4	2	5	112	0.00	29.951 
13:35	69.9	69.9	69.9	72	60.4	2	4	112	0.00	29.951 
13:40	70.1	70.1	70.1	72	60.6	0	3	112	0.00	29.951 
13:45	70.3	70.3	70.3	72	60.8	0	1	112	0.00	29.952 
13:50	70.4	70.4	70.4	72	60.9	0	3	112	0.00	29.952 
13:55	70.6	70.6	70.6	72	61.1	1	2	112	0.00	29.952 
14:00	70.6	70.6	70.6	72	61.1	0	1	112	0.00	29.947 
14:05	70.4	70.4	70.4	71	60.5	1	4	112	0.00	29.947 
14:10	70.6	70.6	70.6	70	60.3	0	2	112	0.00	29.947 
14:15	70.8	70.8	70.8	71	60.9	0	3	112	0.00	29.945 
14:20	70.8	70.8	70.8	70	60.5	1	4	112	0.00	29.945 
14:25	70.8	70.8	70.8	70	60.5	1	3	90	0.00	29.945 
14:30	70.8	70.8	70.8	71	60.9	0	3	90	0.00	29.944 
14:35	70.6	70.6	70.6	71	60.7	1	3	90	0.00	29.944 
14:40	70.6	70.6	70.6	72	61.1	0	3	90	0.00	29.944 
14:45	70.6	70.6	70.6	72	61.1	1	2	90	0.00	29.944 
14:50	70.8	70.8	70.8	73	61.7	0	2	90	0.00	29.944 
14:55	70.9	70.9	70.9	72	61.4	0	1	90	0.00	29.944 
15:00	70.9	70.9	70.9	71	61.0	1	3	90	0.00	29.942 
15:05	70.8	70.8	70.8	72	61.3	1	2	90	0.00	29.942 
15:10	70.8	70.8	70.8	72	61.3	0	3	90	0.00	29.942 
15:15	70.8	70.8	70.8	71	60.9	1	4	90	0.00	29.941 
15:20	70.9	70.9	70.9	72	61.4	1	3	90	0.00	29.941 
15:25	70.9	70.9	70.9	71	61.0	1	4	90	0.00	29.941 
15:30	70.9	70.9	70.9	72	61.4	0	1	90	0.00	29.935 
15:35	71.1	71.1	71.1	71	61.2	0	2	90	0.00	29.935 
15:40	71.1	71.1	71.1	73	62.0	0	2	90	0.00	29.935 
15:45	71.1	71.1	71.1	72	61.6	0	1	90	0.00	29.937 
15:50	71.3	71.3	71.3	73	62.2	0	1	90	0.00	29.937 
15:55	71.5	71.5	71.5	71	61.6	1	5	90	0.00	29.937 
16:00	71.5	71.5	71.5	71	61.6	1	3	90	0.00	29.930 
16:05	71.6	71.6	71.6	71	61.7	2	4	90	0.00	29.930 
16:10	71.8	71.8	71.8	71	61.9	1	3	90	0.00	29.930 
16:15	72.0	72.0	72.0	71	62.1	2	6	90	0.00	29.927 
16:20	72.0	72.0	72.0	71	62.1	0	1	90	0.00	29.927 
16:25	72.1	72.1	72.1	72	62.6	0	2	90	0.00	29.927 
16:30	72.3	72.3	72.3	71	62.4	0	1	90	0.00	29.926 
16:35	72.3	72.3	72.3	68	61.1	2	6	90	0.00	29.926 
16:40	72.0	72.0	72.0	69	61.3	2	3	90	0.00	29.926 
16:45	71.8	71.8	71.8	71	61.9	1	3	90	0.00	29.924 
16:50	71.6	71.6	71.6	72	62.1	1	4	90	0.00	29.924 
16:55	71.6	71.6	71.6	70	61.3	1	2	90	0.00	29.924 
17:00	71.8	71.8	71.8	72	62.3	0	1	90	0.00	29.920 
17:05	72.0	72.0	72.0	72	62.5	0	1	90	0.00	29.920 
17:10	72.0	72.0	72.0	71	62.1	0	1	90	0.00	29.920 
17:15	71.8	71.8	71.8	69	61.1	1	3	90	0.00	29.916 
17:20	72.0	72.0	72.0	70	61.7	1	3	90	0.00	29.916 
17:25	72.3	72.3	72.3	71	62.4	1	2	90	0.00	29.916 
17:30	72.7	72.7	72.7	69	61.9	0	2	90	0.00	29.922 
17:35	73.0	73.0	73.0	70	62.6	0	2	90	0.00	29.922 
17:40	73.0	73.0	73.0	69	62.2	0	2	90	0.00	29.922 
17:45	72.8	72.8	72.8	69	62.0	0	1	90	0.00	29.916 
17:50	72.7	72.7	72.7	69	61.9	0	3	90	0.00	29.916 
17:55	72.7	72.7	72.7	69	61.9	0	2	90	0.00	29.916 
18:00	72.3	72.3	72.3	69	61.5	0	1	90	0.00	29.918 
18:05	72.3	72.3	72.3	69	61.5	0	1	90	0.00	29.918 
18:10	72.5	72.5	72.5	69	61.7	0	1	90	0.00	29.918 
18:15	72.5	72.5	72.5	68	61.3	1	5	112	0.00	29.912 
18:20	72.5	72.5	72.5	68	61.3	1	5	112	0.00	29.912 
18:25	72.3	72.3	72.3	69	61.5	0	2	112	0.00	29.912 
18:30	72.0	72.0	72.0	69	61.3	0	1	112	0.00	29.910 
18:35	72.0	72.0	72.0	70	61.7	0	2	112	0.00	29.910 
18:40	72.0	72.0	72.0	71	62.1	0	1	112	0.00	29.910 
18:45	71.8	71.8	71.8	70	61.5	0	2	112	0.00	29.911 
18:50	71.8	71.8	71.8	71	61.9	0	1	112	0.00	29.911 
18:55	71.6	71.6	71.6	70	61.3	0	3	112	0.00	29.911 
19:00	71.6	71.6	71.6	71	61.7	0	1	112	0.00	29.910 
19:05	71.5	71.5	71.5	71	61.6	0	1	112	0.00	29.910 
19:10	71.3	71.3	71.3	71	61.4	0	2	112	0.00	29.910 
19:15	71.3	71.3	71.3	72	61.8	0	1	112	0.00	29.909 
19:20	71.3	71.3	71.3	72	61.8	0	1	112	0.00	29.909 
19:25	71.3	71.3	71.3	72	61.8	0	2	112	0.00	29.909 
19:30	71.3	71.3	71.3	72	61.8	0	2	112	0.00	29.909 
19:35	71.3	71.3	71.3	72	61.8	0	1	112	0.00	29.909 
19:40	71.1	71.1	71.1	73	62.0	0	0	---	0.00	29.909 
19:45	71.1	71.1	71.1	73	62.0	0	1	112	0.00	29.906 
19:50	70.9	70.9	70.9	73	61.8	0	1	112	0.00	29.906 
19:55	70.8	70.8	70.8	73	61.7	0	3	112	0.00	29.906 
20:00	70.6	70.6	70.6	74	61.9	0	2	112	0.00	29.899 
20:05	70.4	70.4	70.4	74	61.7	0	2	112	0.00	29.899 
20:10	70.3	70.3	70.3	75	62.0	0	1	112	0.00	29.899 
20:15	70.1	70.1	70.1	75	61.8	0	1	112	0.00	29.894 
20:20	69.9	69.9	69.9	76	62.0	0	1	112	0.00	29.894 
20:25	69.9	69.9	69.9	76	62.0	0	1	112	0.00	29.894 
20:30	69.8	69.8	69.8	77	62.3	0	1	112	0.00	29.895 
20:35	69.6	69.6	69.6	77	62.1	0	0	---	0.00	29.895 
20:40	69.6	69.6	69.6	78	62.4	0	1	112	0.00	29.895 
20:45	69.4	69.4	69.4	78	62.2	0	0	---	0.00	29.897 
20:50	69.3	69.3	69.3	78	62.1	0	3	112	0.00	29.897 
20:55	69.1	69.1	69.1	78	61.9	0	1	112	0.00	29.897 
21:00	69.1	69.1	69.1	78	61.9	0	0	---	0.00	29.897 
21:05	68.9	68.9	68.9	78	61.7	0	0	---	0.00	29.897 
21:10	68.9	68.9	68.9	79	62.1	0	1	112	0.00	29.897 
21:15	68.9	68.9	68.9	79	62.1	0	0	---	0.00	29.897 
21:20	68.8	68.8	68.8	79	62.0	0	0	---	0.00	29.897 
21:25	68.6	68.6	68.6	80	62.2	0	0	---	0.00	29.897 
21:30	68.4	68.4	68.4	80	62.0	0	0	---	0.00	29.902 
21:35	68.4	68.4	68.4	80	62.0	0	2	112	0.00	29.902 
21:40	68.3	68.3	68.3	80	61.9	0	1	112	0.00	29.902 
21:45	68.3	68.3	68.3	80	61.9	0	1	112	0.00	29.905 
21:50	68.3	68.3	68.3	81	62.2	0	1	112	0.00	29.905 
21:55	68.1	68.1	68.1	82	62.4	0	0	---	0.00	29.905 
22:00	67.8	67.8	67.8	83	62.4	0	0	---	0.01	29.906 
22:05	67.4	67.4	67.4	84	62.4	0	0	---	0.01	29.906 
22:10	67.3	67.3	67.3	85	62.6	0	0	---	0.01	29.906 
22:15	66.9	66.9	66.9	87	62.9	0	0	---	0.00	29.911 
22:20	66.8	66.8	66.8	87	62.8	0	0	---	0.00	29.911 
22:25	66.6	66.6	66.6	88	62.9	0	1	112	0.01	29.911 
22:30	66.4	66.4	66.4	88	62.7	0	0	---	0.00	29.912 
22:35	66.3	66.3	66.3	89	63.0	0	2	112	0.01	29.912 
22:40	66.3	66.3	66.3	89	63.0	0	0	---	0.00	29.912 
22:45	66.1	66.1	66.1	90	63.1	0	1	112	0.01	29.912 
22:50	66.1	66.1	66.1	91	63.4	0	2	112	0.00	29.912 
22:55	66.0	66.0	66.0	91	63.3	0	2	112	0.00	29.912 
23:00	65.8	65.8	65.8	91	63.1	0	0	---	0.01	29.911 
23:05	65.8	65.8	65.8	91	63.1	0	1	112	0.00	29.911 
23:10	65.6	65.6	65.6	92	63.2	0	1	112	0.01	29.911 
23:15	65.5	65.5	65.5	92	63.1	0	1	112	0.01	29.911 
23:20	65.5	65.5	65.5	92	63.1	0	1	112	0.00	29.911 
23:25	65.5	65.5	65.5	92	63.1	0	1	112	0.01	29.911 
23:30	65.3	65.3	65.3	92	62.9	0	2	112	0.02	29.907 
23:35	65.3	65.3	65.3	92	62.9	0	1	112	0.01	29.907 
23:40	65.2	65.2	65.2	93	63.1	0	1	112	0.01	29.907 
23:45	65.2	65.2	65.2	93	63.1	0	0	---	0.01	29.906 
23:50	65.0	65.0	65.0	93	62.9	0	0	---	0.01	29.906 
23:55	65.0	65.0	65.0	93	62.9	0	0	---	0.00	29.906 

CoCoRaHS
IN-AL-39
A2 Web Hosting
Creative Commons License
GoDaddy
search engine by freefind advanced

loaded 2018-11-20 09:18:48 • last modified 2010-11-18 10:43:29
Privacy PolicyDisclaimer
• wx.awcolley.com is powered by PmWiki v.2002016 •
• all content (unless otherwise noted) © 2018 A W Colley